Hovedside
METAR-TAF:

METAR-TAF

Lufthavner :

Air Force Base Waterkloof

Waterkloof, Sør-Afrika

breddegrad: 25-50S, lengdegrad: 028-13E, høyde over havet: 1498 m

Gjeldene værobservasjon

Denne rapporten ble laget for 32 minutter siden, klokken 03:00 UTC
Vind 3 kt fra Øst-sørøst
Temperatur 5°C
Luftfuktighet 75%
Trykk 1029 hPa

METAR: FAWK 140300Z AUTO 11003KT //// // ////// 05/01 Q1029

Tid: 05:32 (03:32 UTC)

Varsel

Denne rapporten ble laget for 16 timer og 18 minutter siden, klokken 11:14 UTC
Varsel gyldig fra 13. klokken 10 UTC til 13. klokken 18 UTC
Vind 3 kt fra skiftende retning
Sikt 10 km eller mer
ingen skyer under 1500 m og ingen bygeskyer

TAF: FAWK 131114Z 1310/1318 VRB03KT CAVOK TX22/1312Z TN12/1318Z

Værobservasjoner og værvarsel for over 4000 flyplasser (METAR- og TAF-rapporter).

Tilgjengelige stasjoner er representert av de røde og gule prikkene på kartet.

Hold musepekeren over prikken for å se navnet på stasjonen.

Klikk så for å se værobservasjoner og -varsler.

For å forandre kartet kan du klikke på den grønne knappen med svart kryss for å zoome inn, på den grønne knappen med strek for å zoome ut, eller på de grønne pilene for å se tilstøtende kart.


METAR-TAF: